< < Back
Terminal Aerodrome Forecast


Current Version              Previous Versions:   1  2  3  4  5  6  7  8  9  

Terminal Aerodrome Forecast

422
FTUS42 KFFC 281720
TAFAHN
TAF
KAHN 281720Z 2818/2918 VRB04KT P6SM SKC
     FM290000 14003KT P6SM SKC
     FM291600 17005KT P6SM BKN250=

Latest METAR

465
SAUS70 KWBC 282200
MTRAHN
METAR KAHN 282151Z 03003KT 10SM CLR 12/M06 A3023 RMK AO2 SLP242
T01171061


USA.gov is the U.S. government's official web portal to all federal, state and local government web resources and services.